Coggeshall, United Kingdom
Current Conditions -  °F | °C
As of 8:20 PM on Wednesday 26 Nov 2014 (Local Time) from EGSS Reporting Station
Moderate Fog Moderate Fog  
Wind Chill:   Ceiling: 200
Heat Index:   Visibility: 0.21mi
Dew Point:   Wind: 2mph
Humidity: 100%   Direction: NA
Pressure: 29.77"   Gusts: NA
Location:  51.87°N, 0.69°E
Report Text: EGSS 262020Z VRB02KT 0350 R22/0550 FG OVC002 09/09 Q1008
Loading
Personal Weather Stations






























Interactive Weather Map New forecast layout! Learn more

10-Day Weather Forecast

Advertisements
Track Severe Weather on mobile